sensor_id;sensor_type;location;lat;lon;timestamp;P1;durP1;ratioP1;P2;durP2;ratioP2
76131;SDS011;64877;50.994;13.650;2023-07-20T00:01:28;3.10;;;1.83;;
76131;SDS011;64877;50.994;13.650;2023-07-20T00:03:54;4.18;;;1.95;;
76131;SDS011;64877;50.994;13.650;2023-07-20T00:06:22;4.72;;;2.05;;
76131;SDS011;64877;50.994;13.650;2023-07-20T00:08:49;5.22;;;1.50;;
76131;SDS011;64877;50.994;13.650;2023-07-20T00:11:14;4.75;;;1.67;;
76131;SDS011;64877;50.994;13.650;2023-07-20T00:13:39;2.72;;;1.27;;
76131;SDS011;64877;50.994;13.650;2023-07-20T00:16:05;3.65;;;1.70;;
76131;SDS011;64877;50.994;13.650;2023-07-20T00:18:31;3.25;;;1.45;;
76131;SDS011;64877;50.994;13.650;2023-07-20T00:20:56;4.32;;;1.30;;
76131;SDS011;64877;50.994;13.650;2023-07-20T00:23:22;3.55;;;1.40;;
76131;SDS011;64877;50.994;13.650;2023-07-20T00:25:48;3.25;;;1.60;;
76131;SDS011;64877;50.994;13.650;2023-07-20T00:28:13;4.03;;;1.40;;
76131;SDS011;64877;50.994;13.650;2023-07-20T00:30:39;2.50;;;1.23;;
76131;SDS011;64877;50.994;13.650;2023-07-20T00:33:06;3.47;;;1.05;;
76131;SDS011;64877;50.994;13.650;2023-07-20T00:35:35;3.45;;;1.20;;
76131;SDS011;64877;50.994;13.650;2023-07-20T00:38:00;3.50;;;1.08;;
76131;SDS011;64877;50.994;13.650;2023-07-20T00:40:26;2.72;;;1.27;;
76131;SDS011;64877;50.994;13.650;2023-07-20T00:42:52;3.35;;;1.25;;
76131;SDS011;64877;50.994;13.650;2023-07-20T00:45:17;3.30;;;1.42;;
76131;SDS011;64877;50.994;13.650;2023-07-20T00:47:42;3.63;;;1.42;;
76131;SDS011;64877;50.994;13.650;2023-07-20T00:50:09;4.15;;;1.63;;
76131;SDS011;64877;50.994;13.650;2023-07-20T00:52:35;3.55;;;1.50;;
76131;SDS011;64877;50.994;13.650;2023-07-20T00:55:04;5.70;;;2.42;;
76131;SDS011;64877;50.994;13.650;2023-07-20T00:57:31;3.10;;;1.30;;
76131;SDS011;64877;50.994;13.650;2023-07-20T00:59:57;4.13;;;1.90;;
76131;SDS011;64877;50.994;13.650;2023-07-20T01:02:22;3.10;;;1.45;;
76131;SDS011;64877;50.994;13.650;2023-07-20T01:04:47;4.97;;;1.98;;
76131;SDS011;64877;50.994;13.650;2023-07-20T01:07:35;4.50;;;1.80;;
76131;SDS011;64877;50.994;13.650;2023-07-20T01:10:18;7.20;;;1.67;;
76131;SDS011;64877;50.994;13.650;2023-07-20T01:15:19;4.20;;;1.40;;
76131;SDS011;64877;50.994;13.650;2023-07-20T01:17:45;3.92;;;1.90;;
76131;SDS011;64877;50.994;13.650;2023-07-20T01:20:12;4.07;;;1.60;;
76131;SDS011;64877;50.994;13.650;2023-07-20T01:28:31;4.63;;;2.63;;
76131;SDS011;64877;50.994;13.650;2023-07-20T01:31:18;6.85;;;2.97;;
76131;SDS011;64877;50.994;13.650;2023-07-20T01:33:50;4.80;;;2.30;;
76131;SDS011;64877;50.994;13.650;2023-07-20T01:36:18;4.13;;;2.22;;
76131;SDS011;64877;50.994;13.650;2023-07-20T01:38:46;5.25;;;2.08;;
76131;SDS011;64877;50.994;13.650;2023-07-20T01:41:12;3.03;;;1.95;;
76131;SDS011;64877;50.994;13.650;2023-07-20T01:43:39;3.08;;;1.90;;
76131;SDS011;64877;50.994;13.650;2023-07-20T01:46:05;4.50;;;2.15;;
76131;SDS011;64877;50.994;13.650;2023-07-20T01:48:30;5.25;;;1.85;;
76131;SDS011;64877;50.994;13.650;2023-07-20T01:50:56;3.53;;;1.98;;
76131;SDS011;64877;50.994;13.650;2023-07-20T01:53:22;4.15;;;1.83;;
76131;SDS011;64877;50.994;13.650;2023-07-20T01:55:47;4.90;;;1.92;;
76131;SDS011;64877;50.994;13.650;2023-07-20T01:58:13;6.15;;;1.90;;
76131;SDS011;64877;50.994;13.650;2023-07-20T02:00:38;3.53;;;2.25;;
76131;SDS011;64877;50.994;13.650;2023-07-20T02:03:04;4.47;;;2.10;;
76131;SDS011;64877;50.994;13.650;2023-07-20T02:05:29;3.45;;;2.33;;
76131;SDS011;64877;50.994;13.650;2023-07-20T02:07:55;3.50;;;2.10;;
76131;SDS011;64877;50.994;13.650;2023-07-20T02:10:20;4.38;;;2.33;;
76131;SDS011;64877;50.994;13.650;2023-07-20T02:12:46;5.75;;;2.30;;
76131;SDS011;64877;50.994;13.650;2023-07-20T02:15:12;4.70;;;2.40;;
76131;SDS011;64877;50.994;13.650;2023-07-20T02:17:38;5.85;;;2.22;;
76131;SDS011;64877;50.994;13.650;2023-07-20T02:20:06;5.60;;;2.30;;
76131;SDS011;64877;50.994;13.650;2023-07-20T02:22:34;7.82;;;2.15;;
76131;SDS011;64877;50.994;13.650;2023-07-20T02:24:59;7.40;;;2.20;;
76131;SDS011;64877;50.994;13.650;2023-07-20T02:27:24;5.32;;;2.42;;
76131;SDS011;64877;50.994;13.650;2023-07-20T02:29:50;4.28;;;2.25;;
76131;SDS011;64877;50.994;13.650;2023-07-20T02:32:15;5.63;;;2.55;;
76131;SDS011;64877;50.994;13.650;2023-07-20T02:34:40;4.78;;;2.65;;
76131;SDS011;64877;50.994;13.650;2023-07-20T02:37:06;3.70;;;2.90;;
76131;SDS011;64877;50.994;13.650;2023-07-20T02:39:31;4.07;;;2.67;;
76131;SDS011;64877;50.994;13.650;2023-07-20T02:41:57;6.07;;;2.90;;
76131;SDS011;64877;50.994;13.650;2023-07-20T02:44:22;7.05;;;3.10;;
76131;SDS011;64877;50.994;13.650;2023-07-20T02:46:48;7.90;;;2.90;;
76131;SDS011;64877;50.994;13.650;2023-07-20T02:49:14;6.35;;;3.20;;
76131;SDS011;64877;50.994;13.650;2023-07-20T02:51:40;5.07;;;3.05;;
76131;SDS011;64877;50.994;13.650;2023-07-20T02:54:06;6.05;;;3.55;;
76131;SDS011;64877;50.994;13.650;2023-07-20T02:56:31;6.75;;;3.05;;
76131;SDS011;64877;50.994;13.650;2023-07-20T02:58:57;5.90;;;3.40;;
76131;SDS011;64877;50.994;13.650;2023-07-20T03:01:22;5.03;;;3.22;;
76131;SDS011;64877;50.994;13.650;2023-07-20T03:03:48;5.13;;;3.30;;
76131;SDS011;64877;50.994;13.650;2023-07-20T03:06:13;6.18;;;3.90;;
76131;SDS011;64877;50.994;13.650;2023-07-20T03:08:40;10.90;;;3.65;;
76131;SDS011;64877;50.994;13.650;2023-07-20T03:11:12;6.53;;;3.40;;
76131;SDS011;64877;50.994;13.650;2023-07-20T03:13:41;6.63;;;3.13;;
76131;SDS011;64877;50.994;13.650;2023-07-20T03:16:07;9.63;;;3.20;;
76131;SDS011;64877;50.994;13.650;2023-07-20T03:18:36;7.30;;;3.13;;
76131;SDS011;64877;50.994;13.650;2023-07-20T03:21:03;4.97;;;3.13;;
76131;SDS011;64877;50.994;13.650;2023-07-20T03:23:28;8.02;;;3.67;;
76131;SDS011;64877;50.994;13.650;2023-07-20T03:25:53;5.35;;;3.58;;
76131;SDS011;64877;50.994;13.650;2023-07-20T03:28:20;6.28;;;3.70;;
76131;SDS011;64877;50.994;13.650;2023-07-20T03:30:45;5.85;;;3.63;;
76131;SDS011;64877;50.994;13.650;2023-07-20T03:33:11;4.63;;;3.25;;
76131;SDS011;64877;50.994;13.650;2023-07-20T03:35:37;5.68;;;3.35;;
76131;SDS011;64877;50.994;13.650;2023-07-20T03:38:02;6.75;;;3.20;;
76131;SDS011;64877;50.994;13.650;2023-07-20T03:40:27;7.40;;;3.60;;
76131;SDS011;64877;50.994;13.650;2023-07-20T03:42:53;5.43;;;3.33;;
76131;SDS011;64877;50.994;13.650;2023-07-20T03:45:18;10.35;;;3.67;;
76131;SDS011;64877;50.994;13.650;2023-07-20T03:47:44;5.28;;;3.35;;
76131;SDS011;64877;50.994;13.650;2023-07-20T03:50:09;7.53;;;3.30;;
76131;SDS011;64877;50.994;13.650;2023-07-20T03:52:35;6.63;;;3.10;;
76131;SDS011;64877;50.994;13.650;2023-07-20T03:55:01;5.55;;;2.90;;
76131;SDS011;64877;50.994;13.650;2023-07-20T03:57:26;6.68;;;2.70;;
76131;SDS011;64877;50.994;13.650;2023-07-20T03:59:52;6.78;;;3.05;;
76131;SDS011;64877;50.994;13.650;2023-07-20T04:02:18;5.32;;;3.30;;
76131;SDS011;64877;50.994;13.650;2023-07-20T04:04:43;7.05;;;3.38;;
76131;SDS011;64877;50.994;13.650;2023-07-20T04:07:09;6.32;;;3.17;;
76131;SDS011;64877;50.994;13.650;2023-07-20T04:09:34;5.57;;;2.88;;
76131;SDS011;64877;50.994;13.650;2023-07-20T04:12:00;5.38;;;3.35;;
76131;SDS011;64877;50.994;13.650;2023-07-20T04:14:25;5.95;;;3.03;;
76131;SDS011;64877;50.994;13.650;2023-07-20T04:16:51;4.75;;;2.85;;
76131;SDS011;64877;50.994;13.650;2023-07-20T04:19:16;6.35;;;3.10;;
76131;SDS011;64877;50.994;13.650;2023-07-20T04:21:43;8.45;;;3.33;;
76131;SDS011;64877;50.994;13.650;2023-07-20T04:24:09;7.10;;;3.13;;
76131;SDS011;64877;50.994;13.650;2023-07-20T04:26:34;5.80;;;3.40;;
76131;SDS011;64877;50.994;13.650;2023-07-20T04:29:00;5.50;;;4.00;;
76131;SDS011;64877;50.994;13.650;2023-07-20T04:31:26;9.35;;;3.90;;
76131;SDS011;64877;50.994;13.650;2023-07-20T04:33:51;6.85;;;3.72;;
76131;SDS011;64877;50.994;13.650;2023-07-20T04:36:16;6.07;;;3.08;;
76131;SDS011;64877;50.994;13.650;2023-07-20T04:38:44;7.15;;;3.30;;
76131;SDS011;64877;50.994;13.650;2023-07-20T04:41:11;6.78;;;3.60;;
76131;SDS011;64877;50.994;13.650;2023-07-20T04:43:40;8.90;;;3.85;;
76131;SDS011;64877;50.994;13.650;2023-07-20T04:46:07;6.13;;;3.95;;
76131;SDS011;64877;50.994;13.650;2023-07-20T04:48:33;10.20;;;4.32;;
76131;SDS011;64877;50.994;13.650;2023-07-20T04:50:58;7.03;;;3.60;;
76131;SDS011;64877;50.994;13.650;2023-07-20T04:53:23;8.43;;;4.07;;
76131;SDS011;64877;50.994;13.650;2023-07-20T04:55:49;6.60;;;3.55;;
76131;SDS011;64877;50.994;13.650;2023-07-20T04:58:16;7.28;;;4.18;;
76131;SDS011;64877;50.994;13.650;2023-07-20T05:00:43;7.78;;;4.10;;
76131;SDS011;64877;50.994;13.650;2023-07-20T05:03:08;6.55;;;3.45;;
76131;SDS011;64877;50.994;13.650;2023-07-20T05:05:34;6.30;;;4.13;;
76131;SDS011;64877;50.994;13.650;2023-07-20T05:07:59;7.60;;;3.60;;
76131;SDS011;64877;50.994;13.650;2023-07-20T05:10:24;6.05;;;3.40;;
76131;SDS011;64877;50.994;13.650;2023-07-20T05:12:50;5.55;;;3.55;;
76131;SDS011;64877;50.994;13.650;2023-07-20T05:15:15;10.43;;;3.70;;
76131;SDS011;64877;50.994;13.650;2023-07-20T05:17:41;5.00;;;3.40;;
76131;SDS011;64877;50.994;13.650;2023-07-20T05:20:06;5.07;;;3.25;;
76131;SDS011;64877;50.994;13.650;2023-07-20T05:22:34;5.30;;;3.03;;
76131;SDS011;64877;50.994;13.650;2023-07-20T05:25:00;5.65;;;3.60;;
76131;SDS011;64877;50.994;13.650;2023-07-20T05:27:25;5.55;;;2.90;;
76131;SDS011;64877;50.994;13.650;2023-07-20T05:29:51;10.65;;;3.40;;
76131;SDS011;64877;50.994;13.650;2023-07-20T05:32:16;6.80;;;3.13;;
76131;SDS011;64877;50.994;13.650;2023-07-20T05:34:42;6.70;;;3.22;;
76131;SDS011;64877;50.994;13.650;2023-07-20T05:37:07;5.97;;;2.35;;
76131;SDS011;64877;50.994;13.650;2023-07-20T05:39:33;7.68;;;3.25;;
76131;SDS011;64877;50.994;13.650;2023-07-20T05:41:58;5.38;;;2.20;;
76131;SDS011;64877;50.994;13.650;2023-07-20T05:44:24;11.23;;;2.95;;
76131;SDS011;64877;50.994;13.650;2023-07-20T05:46:49;4.82;;;2.28;;
76131;SDS011;64877;50.994;13.650;2023-07-20T05:49:14;6.05;;;2.22;;
76131;SDS011;64877;50.994;13.650;2023-07-20T05:51:40;7.90;;;3.13;;
76131;SDS011;64877;50.994;13.650;2023-07-20T05:54:05;14.23;;;4.13;;
76131;SDS011;64877;50.994;13.650;2023-07-20T05:56:31;7.80;;;2.75;;
76131;SDS011;64877;50.994;13.650;2023-07-20T05:58:57;10.65;;;2.97;;
76131;SDS011;64877;50.994;13.650;2023-07-20T06:01:22;9.73;;;2.70;;
76131;SDS011;64877;50.994;13.650;2023-07-20T06:03:47;7.90;;;2.47;;
76131;SDS011;64877;50.994;13.650;2023-07-20T06:06:13;6.68;;;2.70;;
76131;SDS011;64877;50.994;13.650;2023-07-20T06:08:38;10.60;;;2.83;;
76131;SDS011;64877;50.994;13.650;2023-07-20T06:11:04;7.13;;;2.80;;
76131;SDS011;64877;50.994;13.650;2023-07-20T06:13:29;6.45;;;2.75;;
76131;SDS011;64877;50.994;13.650;2023-07-20T06:15:55;5.55;;;2.10;;
76131;SDS011;64877;50.994;13.650;2023-07-20T06:18:22;7.38;;;2.50;;
76131;SDS011;64877;50.994;13.650;2023-07-20T06:20:49;7.97;;;3.10;;
76131;SDS011;64877;50.994;13.650;2023-07-20T06:23:15;6.30;;;2.58;;
76131;SDS011;64877;50.994;13.650;2023-07-20T06:25:41;9.18;;;3.25;;
76131;SDS011;64877;50.994;13.650;2023-07-20T06:28:08;6.97;;;3.20;;
76131;SDS011;64877;50.994;13.650;2023-07-20T06:30:34;7.75;;;2.58;;
76131;SDS011;64877;50.994;13.650;2023-07-20T06:33:00;5.72;;;2.65;;
76131;SDS011;64877;50.994;13.650;2023-07-20T06:35:26;5.15;;;2.05;;
76131;SDS011;64877;50.994;13.650;2023-07-20T06:37:51;4.95;;;2.78;;
76131;SDS011;64877;50.994;13.650;2023-07-20T06:40:17;9.07;;;2.83;;
76131;SDS011;64877;50.994;13.650;2023-07-20T06:42:42;6.70;;;3.33;;
76131;SDS011;64877;50.994;13.650;2023-07-20T06:45:08;7.93;;;3.47;;
76131;SDS011;64877;50.994;13.650;2023-07-20T06:47:34;5.68;;;3.03;;
76131;SDS011;64877;50.994;13.650;2023-07-20T06:49:59;5.75;;;3.22;;
76131;SDS011;64877;50.994;13.650;2023-07-20T06:52:25;4.95;;;3.08;;
76131;SDS011;64877;50.994;13.650;2023-07-20T06:54:50;8.15;;;3.75;;
76131;SDS011;64877;50.994;13.650;2023-07-20T06:57:16;4.72;;;2.80;;
76131;SDS011;64877;50.994;13.650;2023-07-20T06:59:41;5.93;;;3.40;;
76131;SDS011;64877;50.994;13.650;2023-07-20T07:02:07;9.43;;;3.92;;
76131;SDS011;64877;50.994;13.650;2023-07-20T07:04:33;5.90;;;3.20;;
76131;SDS011;64877;50.994;13.650;2023-07-20T07:06:59;6.30;;;3.22;;
76131;SDS011;64877;50.994;13.650;2023-07-20T07:09:25;4.38;;;3.15;;
76131;SDS011;64877;50.994;13.650;2023-07-20T07:11:50;4.20;;;2.70;;
76131;SDS011;64877;50.994;13.650;2023-07-20T07:14:15;6.70;;;3.50;;
76131;SDS011;64877;50.994;13.650;2023-07-20T07:16:41;5.90;;;3.38;;
76131;SDS011;64877;50.994;13.650;2023-07-20T07:19:06;8.27;;;3.45;;
76131;SDS011;64877;50.994;13.650;2023-07-20T07:21:32;7.85;;;4.60;;
76131;SDS011;64877;50.994;13.650;2023-07-20T07:23:57;6.28;;;3.42;;
76131;SDS011;64877;50.994;13.650;2023-07-20T07:26:24;3.92;;;3.42;;
76131;SDS011;64877;50.994;13.650;2023-07-20T07:28:50;7.70;;;4.30;;
76131;SDS011;64877;50.994;13.650;2023-07-20T07:31:16;5.05;;;3.47;;
76131;SDS011;64877;50.994;13.650;2023-07-20T07:33:41;4.10;;;2.65;;
76131;SDS011;64877;50.994;13.650;2023-07-20T07:36:06;4.45;;;3.10;;
76131;SDS011;64877;50.994;13.650;2023-07-20T07:38:32;3.03;;;2.28;;
76131;SDS011;64877;50.994;13.650;2023-07-20T07:40:58;3.95;;;2.30;;
76131;SDS011;64877;50.994;13.650;2023-07-20T07:43:23;4.10;;;2.00;;
76131;SDS011;64877;50.994;13.650;2023-07-20T07:45:49;5.47;;;2.20;;
76131;SDS011;64877;50.994;13.650;2023-07-20T07:48:14;3.10;;;2.00;;
76131;SDS011;64877;50.994;13.650;2023-07-20T07:50:40;4.88;;;2.30;;
76131;SDS011;64877;50.994;13.650;2023-07-20T07:53:05;2.85;;;1.75;;
76131;SDS011;64877;50.994;13.650;2023-07-20T07:55:32;4.35;;;2.25;;
76131;SDS011;64877;50.994;13.650;2023-07-20T07:57:57;6.22;;;2.75;;
76131;SDS011;64877;50.994;13.650;2023-07-20T08:00:23;17.25;;;10.23;;
76131;SDS011;64877;50.994;13.650;2023-07-20T08:02:49;11.20;;;6.25;;
76131;SDS011;64877;50.994;13.650;2023-07-20T08:05:15;7.28;;;4.00;;
76131;SDS011;64877;50.994;13.650;2023-07-20T08:07:41;5.93;;;3.00;;
76131;SDS011;64877;50.994;13.650;2023-07-20T08:10:07;5.88;;;3.15;;
76131;SDS011;64877;50.994;13.650;2023-07-20T08:12:33;5.65;;;3.05;;
76131;SDS011;64877;50.994;13.650;2023-07-20T08:14:58;4.18;;;2.28;;
76131;SDS011;64877;50.994;13.650;2023-07-20T08:17:24;5.65;;;2.63;;
76131;SDS011;64877;50.994;13.650;2023-07-20T08:19:49;3.50;;;2.30;;
76131;SDS011;64877;50.994;13.650;2023-07-20T08:22:15;3.35;;;2.10;;
76131;SDS011;64877;50.994;13.650;2023-07-20T08:24:41;4.55;;;2.50;;
76131;SDS011;64877;50.994;13.650;2023-07-20T08:27:07;5.03;;;2.63;;
76131;SDS011;64877;50.994;13.650;2023-07-20T08:29:34;3.70;;;2.10;;
76131;SDS011;64877;50.994;13.650;2023-07-20T08:32:00;3.50;;;1.80;;
76131;SDS011;64877;50.994;13.650;2023-07-20T08:34:25;3.33;;;1.88;;
76131;SDS011;64877;50.994;13.650;2023-07-20T08:36:51;7.72;;;2.10;;
76131;SDS011;64877;50.994;13.650;2023-07-20T08:39:16;3.42;;;2.03;;
76131;SDS011;64877;50.994;13.650;2023-07-20T08:41:44;5.28;;;2.13;;
76131;SDS011;64877;50.994;13.650;2023-07-20T08:44:11;5.13;;;1.95;;
76131;SDS011;64877;50.994;13.650;2023-07-20T08:46:38;4.22;;;2.08;;
76131;SDS011;64877;50.994;13.650;2023-07-20T08:49:05;4.95;;;1.98;;
76131;SDS011;64877;50.994;13.650;2023-07-20T08:51:31;3.67;;;1.92;;
76131;SDS011;64877;50.994;13.650;2023-07-20T08:56:24;4.10;;;1.85;;
76131;SDS011;64877;50.994;13.650;2023-07-20T08:58:51;4.18;;;2.20;;
76131;SDS011;64877;50.994;13.650;2023-07-20T09:01:19;4.10;;;1.95;;
76131;SDS011;64877;50.994;13.650;2023-07-20T09:03:45;3.60;;;2.00;;
76131;SDS011;64877;50.994;13.650;2023-07-20T09:06:11;4.00;;;1.80;;
76131;SDS011;64877;50.994;13.650;2023-07-20T09:08:40;4.70;;;2.00;;
76131;SDS011;64877;50.994;13.650;2023-07-20T09:11:06;2.67;;;2.05;;
76131;SDS011;64877;50.994;13.650;2023-07-20T09:13:32;3.80;;;1.92;;
76131;SDS011;64877;50.994;13.650;2023-07-20T09:15:58;5.13;;;1.95;;
76131;SDS011;64877;50.994;13.650;2023-07-20T09:18:25;3.45;;;1.85;;
76131;SDS011;64877;50.994;13.650;2023-07-20T09:20:52;3.47;;;2.08;;
76131;SDS011;64877;50.994;13.650;2023-07-20T09:23:17;3.08;;;1.90;;
76131;SDS011;64877;50.994;13.650;2023-07-20T09:25:42;2.70;;;1.77;;
76131;SDS011;64877;50.994;13.650;2023-07-20T09:28:08;5.38;;;2.30;;
76131;SDS011;64877;50.994;13.650;2023-07-20T09:30:33;3.42;;;1.98;;
76131;SDS011;64877;50.994;13.650;2023-07-20T09:32:59;4.22;;;2.17;;
76131;SDS011;64877;50.994;13.650;2023-07-20T09:35:25;2.63;;;2.42;;
76131;SDS011;64877;50.994;13.650;2023-07-20T09:37:51;2.72;;;1.95;;
76131;SDS011;64877;50.994;13.650;2023-07-20T09:40:19;4.03;;;2.33;;
76131;SDS011;64877;50.994;13.650;2023-07-20T09:42:45;4.05;;;2.03;;
76131;SDS011;64877;50.994;13.650;2023-07-20T09:45:11;3.25;;;1.60;;
76131;SDS011;64877;50.994;13.650;2023-07-20T09:47:37;6.85;;;2.85;;
76131;SDS011;64877;50.994;13.650;2023-07-20T09:50:03;5.03;;;1.80;;
76131;SDS011;64877;50.994;13.650;2023-07-20T09:52:29;5.53;;;2.28;;
76131;SDS011;64877;50.994;13.650;2023-07-20T09:54:55;3.05;;;1.42;;
76131;SDS011;64877;50.994;13.650;2023-07-20T09:57:22;5.28;;;1.88;;
76131;SDS011;64877;50.994;13.650;2023-07-20T09:59:48;3.75;;;1.40;;
76131;SDS011;64877;50.994;13.650;2023-07-20T10:02:20;3.72;;;1.80;;
76131;SDS011;64877;50.994;13.650;2023-07-20T10:04:52;3.53;;;1.23;;
76131;SDS011;64877;50.994;13.650;2023-07-20T10:07:19;5.18;;;1.77;;
76131;SDS011;64877;50.994;13.650;2023-07-20T10:09:48;3.83;;;1.30;;
76131;SDS011;64877;50.994;13.650;2023-07-20T10:12:16;3.10;;;1.17;;
76131;SDS011;64877;50.994;13.650;2023-07-20T10:14:48;3.65;;;1.33;;
76131;SDS011;64877;50.994;13.650;2023-07-20T10:17:19;3.30;;;1.50;;
76131;SDS011;64877;50.994;13.650;2023-07-20T10:19:47;4.03;;;1.85;;
76131;SDS011;64877;50.994;13.650;2023-07-20T10:22:17;5.40;;;1.20;;
76131;SDS011;64877;50.994;13.650;2023-07-20T10:24:45;6.03;;;1.30;;
76131;SDS011;64877;50.994;13.650;2023-07-20T10:27:12;3.42;;;1.10;;
76131;SDS011;64877;50.994;13.650;2023-07-20T10:29:39;2.10;;;1.10;;
76131;SDS011;64877;50.994;13.650;2023-07-20T10:32:06;3.72;;;1.10;;
76131;SDS011;64877;50.994;13.650;2023-07-20T10:34:33;5.80;;;1.00;;
76131;SDS011;64877;50.994;13.650;2023-07-20T10:36:59;2.97;;;1.20;;
76131;SDS011;64877;50.994;13.650;2023-07-20T10:39:25;2.67;;;1.23;;
76131;SDS011;64877;50.994;13.650;2023-07-20T10:42:09;5.68;;;1.50;;
76131;SDS011;64877;50.994;13.650;2023-07-20T10:44:38;3.83;;;1.60;;
76131;SDS011;64877;50.994;13.650;2023-07-20T10:47:08;2.58;;;1.55;;
76131;SDS011;64877;50.994;13.650;2023-07-20T10:49:35;4.80;;;2.03;;
76131;SDS011;64877;50.994;13.650;2023-07-20T10:52:25;4.55;;;2.25;;
76131;SDS011;64877;50.994;13.650;2023-07-20T10:54:50;3.15;;;2.15;;
76131;SDS011;64877;50.994;13.650;2023-07-20T10:57:23;3.30;;;1.70;;
76131;SDS011;64877;50.994;13.650;2023-07-20T10:59:48;3.03;;;1.70;;
76131;SDS011;64877;50.994;13.650;2023-07-20T11:02:17;2.97;;;1.83;;
76131;SDS011;64877;50.994;13.650;2023-07-20T11:04:44;3.80;;;2.15;;
76131;SDS011;64877;50.994;13.650;2023-07-20T11:07:14;2.85;;;2.30;;
76131;SDS011;64877;50.994;13.650;2023-07-20T11:09:41;4.00;;;2.53;;
76131;SDS011;64877;50.994;13.650;2023-07-20T11:12:14;3.30;;;2.25;;
76131;SDS011;64877;50.994;13.650;2023-07-20T11:14:56;5.07;;;2.50;;
76131;SDS011;64877;50.994;13.650;2023-07-20T11:17:29;4.57;;;3.05;;
76131;SDS011;64877;50.994;13.650;2023-07-20T11:19:55;4.05;;;2.78;;
76131;SDS011;64877;50.994;13.650;2023-07-20T11:22:22;5.28;;;3.47;;
76131;SDS011;64877;50.994;13.650;2023-07-20T11:24:47;12.00;;;4.60;;
76131;SDS011;64877;50.994;13.650;2023-07-20T11:27:14;7.63;;;3.40;;
76131;SDS011;64877;50.994;13.650;2023-07-20T11:29:39;4.95;;;3.42;;
76131;SDS011;64877;50.994;13.650;2023-07-20T11:32:05;3.53;;;2.80;;
76131;SDS011;64877;50.994;13.650;2023-07-20T11:34:31;4.60;;;3.42;;
76131;SDS011;64877;50.994;13.650;2023-07-20T11:39:23;5.20;;;3.30;;
76131;SDS011;64877;50.994;13.650;2023-07-20T11:41:51;4.72;;;3.40;;
76131;SDS011;64877;50.994;13.650;2023-07-20T11:44:18;5.60;;;2.88;;
76131;SDS011;64877;50.994;13.650;2023-07-20T11:46:45;6.53;;;3.20;;
76131;SDS011;64877;50.994;13.650;2023-07-20T11:49:11;5.45;;;2.60;;
76131;SDS011;64877;50.994;13.650;2023-07-20T11:51:37;3.67;;;2.80;;
76131;SDS011;64877;50.994;13.650;2023-07-20T11:54:04;6.47;;;3.22;;
76131;SDS011;64877;50.994;13.650;2023-07-20T11:56:31;8.27;;;4.03;;
76131;SDS011;64877;50.994;13.650;2023-07-20T11:59:00;5.03;;;3.28;;
76131;SDS011;64877;50.994;13.650;2023-07-20T12:01:27;4.60;;;2.55;;
76131;SDS011;64877;50.994;13.650;2023-07-20T12:03:57;4.40;;;2.67;;
76131;SDS011;64877;50.994;13.650;2023-07-20T12:06:24;4.50;;;2.47;;
76131;SDS011;64877;50.994;13.650;2023-07-20T12:08:50;6.00;;;2.85;;
76131;SDS011;64877;50.994;13.650;2023-07-20T12:11:30;4.28;;;2.22;;
76131;SDS011;64877;50.994;13.650;2023-07-20T12:13:57;3.38;;;2.40;;
76131;SDS011;64877;50.994;13.650;2023-07-20T12:16:26;6.30;;;2.50;;
76131;SDS011;64877;50.994;13.650;2023-07-20T12:19:05;5.50;;;3.00;;
76131;SDS011;64877;50.994;13.650;2023-07-20T12:21:33;3.55;;;1.95;;
76131;SDS011;64877;50.994;13.650;2023-07-20T12:24:02;5.00;;;2.28;;
76131;SDS011;64877;50.994;13.650;2023-07-20T12:26:29;3.38;;;2.30;;
76131;SDS011;64877;50.994;13.650;2023-07-20T12:28:54;4.25;;;2.50;;
76131;SDS011;64877;50.994;13.650;2023-07-20T12:31:20;4.03;;;2.45;;
76131;SDS011;64877;50.994;13.650;2023-07-20T12:33:47;3.53;;;2.40;;
76131;SDS011;64877;50.994;13.650;2023-07-20T12:36:13;3.35;;;2.50;;
76131;SDS011;64877;50.994;13.650;2023-07-20T12:38:38;4.28;;;3.13;;
76131;SDS011;64877;50.994;13.650;2023-07-20T12:41:04;4.40;;;3.45;;
76131;SDS011;64877;50.994;13.650;2023-07-20T12:43:29;4.28;;;2.90;;
76131;SDS011;64877;50.994;13.650;2023-07-20T12:45:55;4.57;;;2.42;;
76131;SDS011;64877;50.994;13.650;2023-07-20T12:48:21;4.25;;;2.60;;
76131;SDS011;64877;50.994;13.650;2023-07-20T12:50:47;5.97;;;3.08;;
76131;SDS011;64877;50.994;13.650;2023-07-20T12:53:13;4.10;;;2.67;;
76131;SDS011;64877;50.994;13.650;2023-07-20T12:55:39;4.55;;;2.47;;
76131;SDS011;64877;50.994;13.650;2023-07-20T12:58:06;4.15;;;2.42;;
76131;SDS011;64877;50.994;13.650;2023-07-20T13:00:32;4.75;;;2.45;;
76131;SDS011;64877;50.994;13.650;2023-07-20T13:02:57;3.40;;;1.85;;
76131;SDS011;64877;50.994;13.650;2023-07-20T13:05:23;3.42;;;2.13;;
76131;SDS011;64877;50.994;13.650;2023-07-20T13:07:48;4.22;;;2.47;;
76131;SDS011;64877;50.994;13.650;2023-07-20T13:10:14;3.88;;;2.58;;
76131;SDS011;64877;50.994;13.650;2023-07-20T13:12:39;3.47;;;2.53;;
76131;SDS011;64877;50.994;13.650;2023-07-20T13:15:06;3.33;;;2.47;;
76131;SDS011;64877;50.994;13.650;2023-07-20T13:17:36;5.03;;;2.20;;
76131;SDS011;64877;50.994;13.650;2023-07-20T13:20:03;5.10;;;1.92;;
76131;SDS011;64877;50.994;13.650;2023-07-20T13:22:31;4.00;;;1.95;;
76131;SDS011;64877;50.994;13.650;2023-07-20T13:24:56;4.25;;;1.95;;
76131;SDS011;64877;50.994;13.650;2023-07-20T13:27:22;2.53;;;1.88;;
76131;SDS011;64877;50.994;13.650;2023-07-20T13:29:47;3.13;;;1.70;;
76131;SDS011;64877;50.994;13.650;2023-07-20T13:32:13;4.55;;;2.30;;
76131;SDS011;64877;50.994;13.650;2023-07-20T13:34:43;4.55;;;2.00;;
76131;SDS011;64877;50.994;13.650;2023-07-20T13:37:09;4.03;;;2.08;;
76131;SDS011;64877;50.994;13.650;2023-07-20T13:39:35;4.90;;;1.70;;
76131;SDS011;64877;50.994;13.650;2023-07-20T13:42:00;2.80;;;1.80;;
76131;SDS011;64877;50.994;13.650;2023-07-20T13:44:30;2.80;;;1.90;;
76131;SDS011;64877;50.994;13.650;2023-07-20T13:47:01;3.58;;;1.60;;
76131;SDS011;64877;50.994;13.650;2023-07-20T13:49:32;4.65;;;2.30;;
76131;SDS011;64877;50.994;13.650;2023-07-20T13:51:57;4.88;;;1.80;;
76131;SDS011;64877;50.994;13.650;2023-07-20T13:54:23;3.65;;;1.80;;
76131;SDS011;64877;50.994;13.650;2023-07-20T13:56:49;2.78;;;1.58;;
76131;SDS011;64877;50.994;13.650;2023-07-20T13:59:15;3.15;;;1.80;;
76131;SDS011;64877;50.994;13.650;2023-07-20T14:01:41;3.38;;;1.63;;
76131;SDS011;64877;50.994;13.650;2023-07-20T14:04:06;2.40;;;1.30;;
76131;SDS011;64877;50.994;13.650;2023-07-20T14:06:34;2.38;;;1.40;;
76131;SDS011;64877;50.994;13.650;2023-07-20T14:09:00;2.30;;;1.20;;
76131;SDS011;64877;50.994;13.650;2023-07-20T14:11:25;4.13;;;1.63;;
76131;SDS011;64877;50.994;13.650;2023-07-20T14:13:51;2.42;;;1.50;;
76131;SDS011;64877;50.994;13.650;2023-07-20T14:16:18;2.08;;;1.23;;
76131;SDS011;64877;50.994;13.650;2023-07-20T14:18:45;3.03;;;1.35;;
76131;SDS011;64877;50.994;13.650;2023-07-20T14:21:14;2.78;;;1.13;;
76131;SDS011;64877;50.994;13.650;2023-07-20T14:23:46;3.95;;;1.20;;
76131;SDS011;64877;50.994;13.650;2023-07-20T14:26:14;2.17;;;1.05;;
76131;SDS011;64877;50.994;13.650;2023-07-20T14:28:40;2.15;;;1.17;;
76131;SDS011;64877;50.994;13.650;2023-07-20T14:31:06;2.08;;;1.30;;
76131;SDS011;64877;50.994;13.650;2023-07-20T14:33:31;3.38;;;1.60;;
76131;SDS011;64877;50.994;13.650;2023-07-20T14:35:57;2.50;;;1.13;;
76131;SDS011;64877;50.994;13.650;2023-07-20T14:38:22;1.55;;;1.17;;
76131;SDS011;64877;50.994;13.650;2023-07-20T14:40:48;2.75;;;1.38;;
76131;SDS011;64877;50.994;13.650;2023-07-20T14:43:13;2.97;;;1.40;;